createdAt,value
2022-08-22T00:00:05.957Z,10.8
2022-08-22T00:01:22.247Z,11.4
2022-08-22T00:02:38.533Z,13.9
2022-08-22T00:03:54.834Z,12.4
2022-08-22T00:05:11.130Z,11.4
2022-08-22T00:06:26.436Z,11.8
2022-08-22T00:07:42.726Z,13.4
2022-08-22T00:08:59.030Z,10.5
2022-08-22T00:10:15.324Z,10.9
2022-08-22T00:11:31.613Z,10.4
2022-08-22T00:12:47.902Z,12.2
2022-08-22T00:14:04.209Z,13.9
2022-08-22T00:15:20.504Z,9.3
2022-08-22T00:16:36.804Z,11.3
2022-08-22T00:19:09.372Z,10.6
2022-08-22T00:20:25.667Z,12.1
2022-08-22T00:21:41.967Z,11.7
2022-08-22T00:22:57.290Z,12.1
2022-08-22T00:24:13.569Z,10.8
2022-08-22T00:25:29.877Z,10
2022-08-22T00:26:46.167Z,11
2022-08-22T00:28:02.449Z,12.1
2022-08-22T00:29:18.755Z,14.1
2022-08-22T00:30:35.047Z,11.7
2022-08-22T00:31:51.342Z,9.8
2022-08-22T00:33:07.623Z,9.7
2022-08-22T00:34:23.920Z,12.1
2022-08-22T00:35:40.229Z,11.3
2022-08-22T00:36:56.524Z,11.2
2022-08-22T00:38:12.799Z,11
2022-08-22T00:39:28.116Z,9.7
2022-08-22T00:40:44.422Z,9.9
2022-08-22T00:42:00.703Z,10.5
2022-08-22T00:43:16.993Z,10.8
2022-08-22T00:44:33.301Z,11.8
2022-08-22T00:45:49.579Z,11.4
2022-08-22T00:47:05.892Z,10.8
2022-08-22T00:48:22.180Z,10.9
2022-08-22T00:49:38.000Z,11.4
2022-08-22T00:50:54.764Z,11.2
2022-08-22T00:52:11.061Z,11.2
2022-08-22T00:53:27.362Z,9.9
2022-08-22T00:54:43.648Z,10.9
2022-08-22T00:55:58.947Z,10.7
2022-08-22T00:57:15.241Z,11.1
2022-08-22T00:58:31.539Z,8.3
2022-08-22T00:59:47.837Z,8.9
2022-08-22T01:01:04.135Z,8
2022-08-22T01:02:20.419Z,10.6
2022-08-22T01:03:36.725Z,10
2022-08-22T01:04:53.011Z,7
2022-08-22T01:06:09.302Z,9
2022-08-22T01:07:25.609Z,8.7
2022-08-22T01:08:41.891Z,9.9
2022-08-22T01:09:58.184Z,7.8
2022-08-22T01:11:14.490Z,8
2022-08-22T01:12:29.790Z,11.5
2022-08-22T01:13:46.090Z,8.3
2022-08-22T01:15:02.388Z,8.3
2022-08-22T01:17:34.977Z,10.3
2022-08-22T01:18:51.271Z,7.8
2022-08-22T01:20:07.562Z,9.1
2022-08-22T01:21:23.862Z,10.5
2022-08-22T01:22:40.136Z,8.7
2022-08-22T01:23:56.436Z,9.1
2022-08-22T01:25:12.742Z,10.5
2022-08-22T01:26:29.026Z,9.5
2022-08-22T01:27:45.326Z,9.3
2022-08-22T01:29:00.628Z,8.5
2022-08-22T01:30:16.929Z,9.1
2022-08-22T01:31:33.225Z,9.6
2022-08-22T01:32:49.517Z,10.9
2022-08-22T01:34:05.811Z,9
2022-08-22T01:35:22.099Z,12.3
2022-08-22T01:36:38.388Z,10.3
2022-08-22T01:37:54.682Z,8.3
2022-08-22T01:39:10.985Z,8.9
2022-08-22T01:40:27.277Z,8.2
2022-08-22T01:41:43.579Z,8.4
2022-08-22T01:42:59.870Z,8.7
2022-08-22T01:44:16.168Z,8.7
2022-08-22T01:45:31.466Z,9.9
2022-08-22T01:46:47.774Z,9.9
2022-08-22T01:48:04.052Z,11.4
2022-08-22T01:49:20.363Z,8.7
2022-08-22T01:50:36.652Z,8.6
2022-08-22T01:51:52.932Z,10.2
2022-08-22T01:53:09.238Z,10.7
2022-08-22T01:54:25.521Z,10.3
2022-08-22T01:55:41.822Z,11.9
2022-08-22T01:58:14.412Z,10
2022-08-22T01:59:30.707Z,8.3
2022-08-22T02:00:47.004Z,7.2
2022-08-22T02:02:02.320Z,11.2
2022-08-22T02:03:18.610Z,8.9
2022-08-22T02:04:34.888Z,8.7
2022-08-22T02:05:51.200Z,10.3
2022-08-22T02:07:07.495Z,9.8
2022-08-22T02:08:23.781Z,9.7
2022-08-22T02:09:40.075Z,7.7
2022-08-22T02:10:56.374Z,10
2022-08-22T02:12:12.664Z,9.2
2022-08-22T02:13:28.949Z,10.4
2022-08-22T02:14:45.242Z,9.6
2022-08-22T02:16:01.541Z,10.2
2022-08-22T02:17:17.830Z,8.6
2022-08-22T02:18:33.153Z,8.4
2022-08-22T02:19:49.449Z,8.3
2022-08-22T02:21:05.733Z,8.4
2022-08-22T02:22:22.028Z,8.7
2022-08-22T02:23:38.315Z,9.5
2022-08-22T02:24:54.618Z,7.7
2022-08-22T02:26:10.908Z,9.3
2022-08-22T02:27:27.202Z,7.4
2022-08-22T02:28:43.508Z,7.4
2022-08-22T02:29:59.801Z,8
2022-08-22T02:31:16.096Z,9.8
2022-08-22T02:32:32.378Z,9
2022-08-22T02:33:48.672Z,8.2
2022-08-22T02:35:03.991Z,9.6
2022-08-22T02:36:20.288Z,7.4
2022-08-22T02:37:36.574Z,6.6
2022-08-22T02:38:52.872Z,11.7
2022-08-22T02:40:09.157Z,8.1
2022-08-22T02:41:25.455Z,8.6
2022-08-22T02:42:41.755Z,9.7
2022-08-22T02:43:58.053Z,9.5
2022-08-22T02:45:14.337Z,9.4
2022-08-22T02:46:30.627Z,8.3
2022-08-22T02:47:46.927Z,8.1
2022-08-22T02:49:03.231Z,8.7
2022-08-22T02:50:19.514Z,8
2022-08-22T02:51:34.830Z,9
2022-08-22T02:52:51.124Z,9
2022-08-22T02:54:07.412Z,7.4
2022-08-22T02:56:40.008Z,9.1
2022-08-22T02:57:56.304Z,8.6
2022-08-22T02:59:12.598Z,10.2
2022-08-22T03:00:28.883Z,9.9
2022-08-22T03:01:45.177Z,10.8
2022-08-22T03:03:01.481Z,10.7
2022-08-22T03:04:17.774Z,11.1
2022-08-22T03:05:34.050Z,9.1
2022-08-22T03:06:50.350Z,11.5
2022-08-22T03:08:05.667Z,8.3
2022-08-22T03:09:21.953Z,7.3
2022-08-22T03:10:38.247Z,8.7
2022-08-22T03:11:54.535Z,9.1
2022-08-22T03:13:10.836Z,8.6
2022-08-22T03:14:27.128Z,9.9
2022-08-22T03:15:43.426Z,8
2022-08-22T03:16:59.714Z,11.1
2022-08-22T03:18:16.015Z,8
2022-08-22T03:19:32.317Z,7.9
2022-08-22T03:20:48.609Z,7.6
2022-08-22T03:22:04.898Z,10.7
2022-08-22T03:23:21.194Z,9
2022-08-22T03:24:36.509Z,8
2022-08-22T03:25:52.794Z,8.3
2022-08-22T03:27:09.090Z,11.2
2022-08-22T03:28:25.389Z,10
2022-08-22T03:29:41.674Z,9.6
2022-08-22T03:30:57.976Z,8.2
2022-08-22T03:32:14.266Z,8.5
2022-08-22T03:33:30.552Z,9
2022-08-22T03:34:46.860Z,9.6
2022-08-22T03:36:03.151Z,7.7
2022-08-22T03:37:19.391Z,8.5
2022-08-22T03:38:35.690Z,10.2
2022-08-22T03:39:51.940Z,8.6
2022-08-22T03:41:07.181Z,8.1
2022-08-22T03:42:23.434Z,9.7
2022-08-22T03:43:39.667Z,7.6
2022-08-22T03:44:55.900Z,10.6
2022-08-22T03:46:12.151Z,8
2022-08-22T03:47:28.392Z,9.1
2022-08-22T03:48:44.625Z,8.4
2022-08-22T03:50:00.870Z,8.2
2022-08-22T03:51:17.104Z,8.5
2022-08-22T03:52:33.344Z,7.2
2022-08-22T03:53:49.589Z,6.9
2022-08-22T03:55:05.834Z,8.1
2022-08-22T03:56:22.061Z,7.4
2022-08-22T03:57:37.326Z,9.4
2022-08-22T03:58:53.557Z,9.4
2022-08-22T04:00:09.816Z,7.7
2022-08-22T04:01:26.047Z,9.7
2022-08-22T04:02:42.291Z,9.5
2022-08-22T04:03:58.530Z,9.5
2022-08-22T04:05:13.792Z,8.8
2022-08-22T04:06:30.027Z,8.7
2022-08-22T04:07:46.269Z,8.6
2022-08-22T04:09:02.506Z,9.3
2022-08-22T04:10:18.753Z,9.9
2022-08-22T04:11:34.988Z,9.8
2022-08-22T04:12:51.227Z,10.6
2022-08-22T04:14:07.469Z,9.9
2022-08-22T04:15:23.703Z,8.9
2022-08-22T04:16:39.939Z,10
2022-08-22T04:17:56.180Z,10
2022-08-22T04:19:12.435Z,8.8
2022-08-22T04:20:28.668Z,9
2022-08-22T04:21:43.923Z,9.1
2022-08-22T04:23:00.163Z,9.2
2022-08-22T04:24:16.397Z,9.6
2022-08-22T04:25:32.643Z,10.3
2022-08-22T04:26:48.879Z,9.9
2022-08-22T04:28:05.122Z,10.5
2022-08-22T04:29:21.359Z,9.7
2022-08-22T04:30:37.615Z,9.7
2022-08-22T04:31:53.842Z,10
2022-08-22T04:33:10.075Z,9.9
2022-08-22T04:34:26.321Z,7.9
2022-08-22T04:35:42.564Z,9.4
2022-08-22T04:36:58.802Z,8.4
2022-08-22T04:38:14.055Z,9.1
2022-08-22T04:39:30.308Z,10.5
2022-08-22T04:40:46.548Z,7.7
2022-08-22T04:42:02.786Z,8.8
2022-08-22T04:44:35.255Z,9.7
2022-08-22T04:45:51.506Z,9.4
2022-08-22T04:47:07.742Z,9.7
2022-08-22T04:48:23.983Z,9.9
2022-08-22T04:49:40.230Z,9
2022-08-22T04:50:56.453Z,10.9
2022-08-22T04:52:12.699Z,9.3
2022-08-22T04:53:28.935Z,9.7
2022-08-22T04:54:44.196Z,8.3
2022-08-22T04:56:00.449Z,8.3
2022-08-22T04:57:16.687Z,8.6
2022-08-22T04:58:32.912Z,7.4
2022-08-22T04:59:49.153Z,8.8
2022-08-22T05:01:05.395Z,8.4
2022-08-22T05:02:21.636Z,8.6
2022-08-22T05:03:37.872Z,9.6
2022-08-22T05:04:54.111Z,8.2
2022-08-22T05:06:10.368Z,8
2022-08-22T05:07:26.591Z,8.5
2022-08-22T05:08:42.840Z,12.3
2022-08-22T05:09:59.084Z,10.3
2022-08-22T05:11:14.336Z,9.4
2022-08-22T05:12:30.575Z,10.7
2022-08-22T05:13:46.824Z,9.5
2022-08-22T05:15:03.066Z,10.4
2022-08-22T05:16:19.292Z,9.1
2022-08-22T05:17:35.526Z,11.8
2022-08-22T05:18:51.770Z,10.2
2022-08-22T05:20:08.008Z,9.1
2022-08-22T05:21:24.262Z,9.1
2022-08-22T05:22:40.494Z,10
2022-08-22T05:23:56.732Z,9.6
2022-08-22T05:25:12.969Z,10.7
2022-08-22T05:26:29.224Z,10.4
2022-08-22T05:27:44.469Z,10.5
2022-08-22T05:29:00.723Z,9.2
2022-08-22T05:30:16.962Z,10.5
2022-08-22T05:31:33.201Z,11.3
2022-08-22T05:32:49.435Z,10.7
2022-08-22T05:34:05.683Z,11.6
2022-08-22T05:35:21.924Z,12.2
2022-08-22T05:36:38.158Z,9.9
2022-08-22T05:37:54.392Z,10.4
2022-08-22T05:39:10.638Z,9.8
2022-08-22T05:40:26.872Z,9.6
2022-08-22T05:41:43.106Z,10
2022-08-22T05:42:59.353Z,9.5
2022-08-22T05:44:14.618Z,9.1
2022-08-22T05:45:30.843Z,12
2022-08-22T05:46:47.089Z,8.5
2022-08-22T05:48:03.329Z,12.2
2022-08-22T05:49:19.575Z,9
2022-08-22T05:50:35.812Z,11.5
2022-08-22T05:51:52.059Z,9.1
2022-08-22T05:53:08.300Z,9.5
2022-08-22T05:54:24.533Z,10.3
2022-08-22T05:55:40.764Z,9.7
2022-08-22T05:56:57.020Z,11.7
2022-08-22T05:58:13.247Z,11
2022-08-22T05:59:29.501Z,9.8
2022-08-22T06:00:44.755Z,11
2022-08-22T06:02:00.992Z,10
2022-08-22T06:03:17.221Z,10.8
2022-08-22T06:04:33.476Z,10.5
2022-08-22T06:05:49.698Z,10.5
2022-08-22T06:07:05.949Z,12.8
2022-08-22T06:08:22.180Z,10.5
2022-08-22T06:09:38.430Z,10.7
2022-08-22T06:10:54.675Z,10.6
2022-08-22T06:12:10.903Z,10.2
2022-08-22T06:13:27.141Z,10.4
2022-08-22T06:14:43.383Z,12
2022-08-22T06:17:15.875Z,9.9
2022-08-22T06:18:31.122Z,10.9
2022-08-22T06:19:47.373Z,10.3
2022-08-22T06:21:03.613Z,12.1
2022-08-22T06:22:19.853Z,10.8
2022-08-22T06:23:36.082Z,11.7
2022-08-22T06:24:52.325Z,11.2
2022-08-22T06:26:08.567Z,10.9
2022-08-22T06:27:24.806Z,11.4
2022-08-22T06:28:41.053Z,9.5
2022-08-22T06:29:57.293Z,10.5
2022-08-22T06:31:13.531Z,10.4
2022-08-22T06:32:29.767Z,11.4
2022-08-22T06:33:45.998Z,10.5
2022-08-22T06:35:01.257Z,12.4
2022-08-22T06:36:17.495Z,11.4
2022-08-22T06:37:33.742Z,10.4
2022-08-22T06:38:49.980Z,12.7
2022-08-22T06:40:06.230Z,11.1
2022-08-22T06:41:22.470Z,10.3
2022-08-22T06:42:38.700Z,11.4
2022-08-22T06:43:54.944Z,11.4
2022-08-22T06:45:11.172Z,12.7
2022-08-22T06:46:27.433Z,11.4
2022-08-22T06:47:43.662Z,12.6
2022-08-22T06:48:59.899Z,9.7
2022-08-22T06:50:16.151Z,10.2
2022-08-22T06:51:31.389Z,10.4
2022-08-22T06:52:47.642Z,11.1
2022-08-22T06:54:03.875Z,15.5
2022-08-22T06:55:20.120Z,11.6
2022-08-22T06:56:36.360Z,10.8
2022-08-22T06:57:52.603Z,10.4
2022-08-22T06:59:08.846Z,10.3
2022-08-22T07:00:25.082Z,10.5
2022-08-22T07:01:41.313Z,10.3
2022-08-22T07:02:57.553Z,12.1
2022-08-22T07:04:13.802Z,10.2
2022-08-22T07:05:30.044Z,9
2022-08-22T07:06:46.285Z,9.2
2022-08-22T07:08:01.530Z,10.8
2022-08-22T07:09:17.776Z,9.8
2022-08-22T07:10:34.022Z,9.6
2022-08-22T07:11:50.264Z,8.5
2022-08-22T07:13:06.487Z,9.9
2022-08-22T07:14:22.738Z,10.8
2022-08-22T07:15:38.969Z,10.1
2022-08-22T07:16:55.225Z,12
2022-08-22T07:18:11.459Z,8.7
2022-08-22T07:19:27.701Z,10.3
2022-08-22T07:20:43.936Z,10.9
2022-08-22T07:22:00.169Z,10.8
2022-08-22T07:23:16.428Z,9.9
2022-08-22T07:24:31.667Z,9.5
2022-08-22T07:25:47.910Z,8.5
2022-08-22T07:27:04.162Z,10.1
2022-08-22T07:28:20.394Z,10.2
2022-08-22T07:29:36.633Z,9.8
2022-08-22T07:30:52.870Z,8.9
2022-08-22T07:32:09.111Z,11.8
2022-08-22T07:33:25.354Z,10.8
2022-08-22T07:34:41.604Z,11.4
2022-08-22T07:35:57.841Z,10
2022-08-22T07:37:14.084Z,10.4
2022-08-22T07:38:30.311Z,8.6
2022-08-22T07:39:46.551Z,11.1
2022-08-22T07:41:01.819Z,9.9
2022-08-22T07:42:18.058Z,11.7
2022-08-22T07:43:34.300Z,11.6
2022-08-22T07:44:50.542Z,8.9
2022-08-22T07:46:06.777Z,10.3
2022-08-22T07:47:23.014Z,8.2
2022-08-22T07:48:39.259Z,9.7
2022-08-22T07:49:55.497Z,9.1
2022-08-22T07:51:11.742Z,9.9
2022-08-22T07:52:27.968Z,9.5
2022-08-22T07:53:44.208Z,9
2022-08-22T07:55:00.444Z,7.5
2022-08-22T07:56:16.696Z,11.3
2022-08-22T07:57:31.956Z,8.8
2022-08-22T07:58:48.182Z,10.5
2022-08-22T08:00:04.424Z,9.4
2022-08-22T08:01:20.658Z,7.7
2022-08-22T08:02:36.912Z,11.6
2022-08-22T08:03:53.155Z,11.2
2022-08-22T08:05:09.393Z,8.5
2022-08-22T08:06:25.635Z,9
2022-08-22T08:07:41.874Z,10.3
2022-08-22T08:08:58.101Z,9.3
2022-08-22T08:10:14.340Z,9.3
2022-08-22T08:11:30.595Z,9.7
2022-08-22T08:12:46.840Z,9.3
2022-08-22T08:14:02.082Z,8.8
2022-08-22T08:15:18.336Z,9.4
2022-08-22T08:16:34.564Z,11.1
2022-08-22T08:17:50.801Z,10.4
2022-08-22T08:19:07.050Z,8.3
2022-08-22T08:20:22.317Z,12.2
2022-08-22T08:21:38.540Z,7.6
2022-08-22T08:22:54.779Z,9.2
2022-08-22T08:24:11.034Z,8.3
2022-08-22T08:25:27.271Z,6.5
2022-08-22T08:26:43.506Z,10
2022-08-22T08:27:59.744Z,9.3
2022-08-22T08:29:15.996Z,9.7
2022-08-22T08:30:32.236Z,8.7
2022-08-22T08:31:48.477Z,10.5
2022-08-22T08:33:04.715Z,7.7
2022-08-22T08:34:20.951Z,9.2
2022-08-22T08:35:37.197Z,8.5
2022-08-22T08:36:52.455Z,9.4
2022-08-22T08:38:08.685Z,8.2
2022-08-22T08:39:24.922Z,8.7
2022-08-22T08:40:41.163Z,8.2
2022-08-22T08:41:57.411Z,7.9
2022-08-22T08:43:13.654Z,6.2
2022-08-22T08:44:29.886Z,8.7
2022-08-22T08:45:46.131Z,8.7
2022-08-22T08:47:02.368Z,7.9
2022-08-22T08:48:18.611Z,6.7
2022-08-22T08:49:34.855Z,8.5
2022-08-22T08:50:51.094Z,6.8
2022-08-22T08:52:07.323Z,6.7
2022-08-22T08:53:22.592Z,7.2
2022-08-22T08:54:38.826Z,8.2
2022-08-22T08:55:55.070Z,6.4
2022-08-22T08:57:11.311Z,6.1
2022-08-22T08:58:27.542Z,9
2022-08-22T08:59:43.778Z,8.3
2022-08-22T09:01:00.030Z,7
2022-08-22T09:02:16.259Z,6.6
2022-08-22T09:03:32.495Z,5.3
2022-08-22T09:04:48.741Z,7.2
2022-08-22T09:06:04.000Z,6.5
2022-08-22T09:07:21.230Z,5.8
2022-08-22T09:08:37.467Z,7.3
2022-08-22T09:09:52.711Z,7
2022-08-22T09:11:08.968Z,5.9
2022-08-22T09:12:25.198Z,6.4
2022-08-22T09:13:41.443Z,7
2022-08-22T09:14:57.681Z,5.6
2022-08-22T09:16:13.927Z,5.5
2022-08-22T09:17:30.157Z,6.8
2022-08-22T09:18:46.405Z,6.2
2022-08-22T09:20:02.636Z,4.9
2022-08-22T09:21:18.877Z,6
2022-08-22T09:22:35.131Z,5.5
2022-08-22T09:23:51.358Z,7.9
2022-08-22T09:25:07.597Z,5.4
2022-08-22T09:26:22.858Z,6.2
2022-08-22T09:27:39.093Z,10
2022-08-22T09:28:55.331Z,7.6
2022-08-22T09:30:11.573Z,7.3
2022-08-22T09:31:27.821Z,5.5
2022-08-22T09:32:44.064Z,6
2022-08-22T09:34:00.297Z,5.9
2022-08-22T09:35:16.550Z,6.2
2022-08-22T09:36:32.779Z,5.2
2022-08-22T09:37:49.023Z,5.2
2022-08-22T09:39:05.253Z,7.2
2022-08-22T09:40:21.500Z,7.8
2022-08-22T09:41:37.752Z,6.5
2022-08-22T09:42:53.005Z,4.7
2022-08-22T09:44:09.237Z,6.4
2022-08-22T09:45:25.475Z,7.2
2022-08-22T09:46:41.714Z,6.5
2022-08-22T09:47:57.949Z,5.8
2022-08-22T09:49:14.203Z,5.6
2022-08-22T09:50:30.432Z,7.2
2022-08-22T09:51:46.676Z,6.6
2022-08-22T09:53:02.922Z,6.8
2022-08-22T09:54:19.157Z,6.6
2022-08-22T09:55:35.406Z,6.3
2022-08-22T09:56:51.636Z,6.3
2022-08-22T09:58:07.882Z,5.5
2022-08-22T09:59:23.146Z,5.3
2022-08-22T10:00:39.377Z,6.7
2022-08-22T10:01:55.616Z,6.4
2022-08-22T10:03:11.862Z,4.7
2022-08-22T10:04:28.095Z,4.7
2022-08-22T10:05:44.342Z,5.4
2022-08-22T10:07:00.577Z,6.3
2022-08-22T10:08:16.808Z,6.5
2022-08-22T10:09:33.051Z,5.4
2022-08-22T10:10:49.297Z,4.9
2022-08-22T10:12:05.536Z,4.9
2022-08-22T10:13:21.769Z,7
2022-08-22T10:14:38.013Z,7.1
2022-08-22T10:15:53.272Z,5.9
2022-08-22T10:17:09.512Z,6
2022-08-22T10:18:25.755Z,5.3
2022-08-22T10:19:41.999Z,5.4
2022-08-22T10:20:58.232Z,5.3
2022-08-22T10:22:14.476Z,6.7
2022-08-22T10:23:30.710Z,7.7
2022-08-22T10:24:46.950Z,5.9
2022-08-22T10:26:03.205Z,7.2
2022-08-22T10:27:19.433Z,5.8
2022-08-22T10:28:35.674Z,7.6
2022-08-22T10:29:51.915Z,5.9
2022-08-22T10:31:08.166Z,6.6
2022-08-22T10:32:23.405Z,6.6
2022-08-22T10:33:39.647Z,5.8
2022-08-22T10:34:55.891Z,6.6
2022-08-22T10:36:12.127Z,6.6
2022-08-22T10:37:28.365Z,5.8
2022-08-22T10:38:44.606Z,6.9
2022-08-22T10:40:00.849Z,9.3
2022-08-22T10:41:17.085Z,8.9
2022-08-22T10:42:33.332Z,7.2
2022-08-22T10:43:49.575Z,8.6
2022-08-22T10:45:05.822Z,6.5
2022-08-22T10:46:22.057Z,5.2
2022-08-22T10:47:38.290Z,8.1
2022-08-22T10:48:53.542Z,7.3
2022-08-22T10:50:09.800Z,6.4
2022-08-22T10:51:26.030Z,8
2022-08-22T10:52:42.264Z,8.7
2022-08-22T10:53:58.501Z,6.5
2022-08-22T10:55:14.757Z,8.8
2022-08-22T10:56:30.983Z,7.3
2022-08-22T10:57:47.234Z,9.6
2022-08-22T10:59:03.481Z,6.7
2022-08-22T11:00:19.709Z,7.1
2022-08-22T11:01:35.943Z,8.4
2022-08-22T11:02:52.197Z,7.5
2022-08-22T11:04:08.443Z,7.7
2022-08-22T11:05:23.699Z,8
2022-08-22T11:06:39.922Z,8.4
2022-08-22T11:07:56.170Z,6.3
2022-08-22T11:09:12.415Z,7.9
2022-08-22T11:10:28.653Z,7.2
2022-08-22T11:11:44.897Z,7.8
2022-08-22T11:13:01.132Z,6.9
2022-08-22T11:14:17.368Z,8.4
2022-08-22T11:15:33.605Z,7.8
2022-08-22T11:16:49.848Z,7.4
2022-08-22T11:18:06.098Z,8
2022-08-22T11:19:22.325Z,6.2
2022-08-22T11:20:38.581Z,8.2
2022-08-22T11:21:53.821Z,6.1
2022-08-22T11:23:10.073Z,6.6
2022-08-22T11:24:26.319Z,5.4
2022-08-22T11:25:42.543Z,7
2022-08-22T11:26:58.797Z,11.1
2022-08-22T11:28:15.021Z,6.2
2022-08-22T11:29:31.262Z,7.5
2022-08-22T11:30:47.503Z,7.3
2022-08-22T11:32:03.743Z,7.7
2022-08-22T11:33:19.991Z,9.7
2022-08-22T11:34:36.238Z,5.7
2022-08-22T11:35:52.461Z,6.3
2022-08-22T11:37:08.701Z,7.1
2022-08-22T11:38:23.966Z,7.9
2022-08-22T11:39:40.196Z,8.3
2022-08-22T11:40:56.441Z,7.4
2022-08-22T11:43:28.932Z,6.9
2022-08-22T11:44:45.173Z,6.7
2022-08-22T11:46:01.411Z,6.4
2022-08-22T11:47:17.636Z,7.9
2022-08-22T11:48:33.894Z,8.7
2022-08-22T11:49:50.124Z,8.1
2022-08-22T11:51:06.361Z,4.8
2022-08-22T11:52:22.606Z,8.5
2022-08-22T11:53:38.852Z,6
2022-08-22T11:54:54.102Z,7.3
2022-08-22T11:56:10.343Z,7.7
2022-08-22T11:57:26.591Z,7
2022-08-22T11:58:42.830Z,7.9
2022-08-22T11:59:59.063Z,7.6
2022-08-22T12:01:15.302Z,8
2022-08-22T12:02:31.540Z,7.2
2022-08-22T12:03:47.776Z,7.9
2022-08-22T12:05:04.030Z,7.8
2022-08-22T12:06:20.256Z,7.3
2022-08-22T12:07:36.498Z,7.7
2022-08-22T12:08:52.750Z,6.6
2022-08-22T12:10:08.975Z,7.3
2022-08-22T12:11:24.000Z,8.9
2022-08-22T12:12:40.486Z,10.3
2022-08-22T12:13:56.711Z,5.5
2022-08-22T12:15:12.970Z,7.1
2022-08-22T12:16:29.202Z,6.3
2022-08-22T12:17:45.452Z,6.8
2022-08-22T12:19:01.690Z,5.8
2022-08-22T12:20:17.920Z,6
2022-08-22T12:25:22.883Z,7
2022-08-22T12:29:10.619Z,7.3
2022-08-22T12:30:25.891Z,7.6
2022-08-22T12:31:41.147Z,6.3
2022-08-22T12:32:56.401Z,7.3
2022-08-22T12:34:11.658Z,8.3
2022-08-22T12:35:26.927Z,5.8
2022-08-22T12:36:43.161Z,6.2
2022-08-22T12:37:59.393Z,6.9
2022-08-22T12:39:15.651Z,6.2
2022-08-22T12:40:31.891Z,8.1
2022-08-22T12:41:48.125Z,11.9
2022-08-22T12:43:04.358Z,6.1
2022-08-22T12:44:20.597Z,7.6
2022-08-22T12:45:36.844Z,7.2
2022-08-22T12:46:52.100Z,6.7
2022-08-22T12:48:07.352Z,5.1
2022-08-22T12:49:22.615Z,7.4
2022-08-22T12:50:37.886Z,6.5
2022-08-22T12:51:53.131Z,5.5
2022-08-22T12:53:08.392Z,7
2022-08-22T12:54:24.640Z,6.6
2022-08-22T12:55:40.875Z,6.4
2022-08-22T12:56:57.118Z,5.7
2022-08-22T12:58:13.358Z,6.5
2022-08-22T12:59:29.590Z,5.7
2022-08-22T13:00:45.831Z,6.9
2022-08-22T13:02:02.069Z,6.3
2022-08-22T13:03:18.317Z,5.7
2022-08-22T13:04:34.552Z,7
2022-08-22T13:05:50.789Z,6.8
2022-08-22T13:07:07.040Z,6
2022-08-22T13:08:23.279Z,7.3
2022-08-22T13:09:38.543Z,8.6
2022-08-22T13:10:54.778Z,6.2
2022-08-22T13:12:11.013Z,8.7
2022-08-22T13:13:27.257Z,5.8
2022-08-22T13:14:43.503Z,5.6
2022-08-22T13:15:59.727Z,7
2022-08-22T13:17:15.978Z,7.3
2022-08-22T13:18:31.226Z,6.3
2022-08-22T13:19:46.485Z,16
2022-08-22T13:21:01.757Z,7.4
2022-08-22T13:22:17.004Z,8.9
2022-08-22T13:23:32.263Z,7.6
2022-08-22T13:24:47.526Z,7.2
2022-08-22T13:26:03.757Z,7.5
2022-08-22T13:27:19.995Z,7.1
2022-08-22T13:28:36.253Z,7
2022-08-22T13:29:52.492Z,6.6
2022-08-22T13:31:08.723Z,6.6
2022-08-22T13:32:24.957Z,7
2022-08-22T13:33:41.204Z,6.9
2022-08-22T13:34:57.437Z,7.7
2022-08-22T13:36:13.686Z,6.7
2022-08-22T13:37:29.932Z,5.9
2022-08-22T13:38:46.172Z,9.2
2022-08-22T13:40:02.402Z,8.3
2022-08-22T13:41:17.654Z,5.9
2022-08-22T13:42:33.896Z,5.7
2022-08-22T13:43:50.142Z,8.7
2022-08-22T13:45:06.385Z,6.8
2022-08-22T13:46:22.619Z,5.7
2022-08-22T13:47:38.859Z,5.5
2022-08-22T13:48:55.112Z,6.4
2022-08-22T13:50:10.363Z,6.1
2022-08-22T13:51:25.617Z,8.1
2022-08-22T13:52:40.881Z,6
2022-08-22T13:53:56.131Z,6.5
2022-08-22T13:55:12.373Z,6.1
2022-08-22T13:56:28.606Z,10.1
2022-08-22T13:57:44.861Z,6.1
2022-08-22T13:59:01.097Z,5.1
2022-08-22T14:00:17.334Z,8.2
2022-08-22T14:01:33.582Z,6.9
2022-08-22T14:02:49.824Z,6.2
2022-08-22T14:04:06.056Z,5.3
2022-08-22T14:05:22.296Z,8.6
2022-08-22T14:06:38.539Z,6.6
2022-08-22T14:07:54.782Z,5.8
2022-08-22T14:09:11.011Z,5.9
2022-08-22T14:10:26.277Z,5.8
2022-08-22T14:11:42.523Z,7.3
2022-08-22T14:12:58.762Z,5.1
2022-08-22T14:14:15.002Z,5.7
2022-08-22T14:15:31.233Z,7.4
2022-08-22T14:16:47.481Z,6.9
2022-08-22T14:18:03.703Z,5.4
2022-08-22T14:19:18.966Z,5.3
2022-08-22T14:20:34.241Z,8
2022-08-22T14:21:50.464Z,7.8
2022-08-22T14:23:06.710Z,6.6
2022-08-22T14:24:22.953Z,7.2
2022-08-22T14:25:39.186Z,7.1
2022-08-22T14:26:55.429Z,5.2
2022-08-22T14:28:11.672Z,6.8
2022-08-22T14:29:27.900Z,7
2022-08-22T14:30:44.141Z,6.4
2022-08-22T14:32:00.392Z,5.9
2022-08-22T14:33:16.621Z,5.9
2022-08-22T14:34:32.866Z,6.6
2022-08-22T14:35:49.119Z,5.3
2022-08-22T14:37:05.352Z,5.7
2022-08-22T14:38:21.589Z,6.1
2022-08-22T14:39:37.829Z,5.4
2022-08-22T14:40:54.079Z,9
2022-08-22T14:42:09.331Z,8.2
2022-08-22T14:43:25.564Z,6
2022-08-22T14:44:41.817Z,7.7
2022-08-22T14:45:57.063Z,4.9
2022-08-22T14:47:12.326Z,6.8
2022-08-22T14:48:28.561Z,5.6
2022-08-22T14:49:44.798Z,6.4
2022-08-22T14:51:01.031Z,6.5
2022-08-22T14:52:17.285Z,5.3
2022-08-22T14:53:33.529Z,5
2022-08-22T14:54:49.773Z,5.3
2022-08-22T14:56:06.000Z,6.2
2022-08-22T14:57:22.243Z,5.8
2022-08-22T14:58:38.478Z,6.8
2022-08-22T14:59:54.718Z,6.3
2022-08-22T15:01:10.972Z,5.8
2022-08-22T15:02:27.199Z,6.6
2022-08-22T15:03:42.474Z,5.3
2022-08-22T15:04:58.696Z,6.4
2022-08-22T15:06:14.950Z,5.3
2022-08-22T15:07:31.171Z,6.7
2022-08-22T15:08:47.415Z,4.8
2022-08-22T15:10:03.660Z,5.9
2022-08-22T15:11:19.892Z,6.9
2022-08-22T15:12:35.161Z,6.5
2022-08-22T15:13:50.414Z,6.7
2022-08-22T15:15:05.681Z,5.6
2022-08-22T15:16:20.933Z,5.9
2022-08-22T15:17:37.178Z,5.5
2022-08-22T15:18:53.408Z,6.2
2022-08-22T15:20:09.646Z,5.6
2022-08-22T15:21:25.889Z,6.7
2022-08-22T15:22:42.132Z,5.9
2022-08-22T15:23:58.365Z,6.7
2022-08-22T15:25:14.611Z,5.8
2022-08-22T15:26:30.850Z,7.7
2022-08-22T15:27:47.085Z,7.2
2022-08-22T15:29:03.321Z,6.2
2022-08-22T15:30:19.571Z,6.4
2022-08-22T15:31:35.821Z,6.9
2022-08-22T15:32:51.061Z,6.9
2022-08-22T15:34:07.302Z,8.1
2022-08-22T15:35:23.544Z,6.4
2022-08-22T15:36:39.786Z,6
2022-08-22T15:37:56.020Z,8
2022-08-22T15:39:11.291Z,6
2022-08-22T15:40:26.545Z,7
2022-08-22T15:41:41.801Z,8.2
2022-08-22T15:42:57.053Z,6
2022-08-22T15:45:28.571Z,5.4
2022-08-22T15:46:43.835Z,6.7
2022-08-22T15:47:59.068Z,9.2
2022-08-22T15:49:14.353Z,5.6
2022-08-22T15:50:29.606Z,7.1
2022-08-22T15:51:45.846Z,6.4
2022-08-22T15:53:02.088Z,6
2022-08-22T15:55:34.552Z,7.2
2022-08-22T15:56:50.800Z,5.4
2022-08-22T15:58:07.027Z,7.5
2022-08-22T15:59:23.287Z,6.5
2022-08-22T16:00:39.519Z,6.1
2022-08-22T16:01:55.768Z,5.6
2022-08-22T16:03:12.001Z,7.2
2022-08-22T16:04:28.247Z,7.1
2022-08-22T16:05:44.479Z,6.3
2022-08-22T16:06:59.743Z,5.6
2022-08-22T16:08:15.966Z,6.4
2022-08-22T16:09:32.225Z,5.6
2022-08-22T16:10:48.447Z,6.8
2022-08-22T16:12:04.700Z,6.2
2022-08-22T16:13:20.920Z,6
2022-08-22T16:14:37.166Z,5.2
2022-08-22T16:15:53.406Z,5
2022-08-22T16:17:08.676Z,5.3
2022-08-22T16:18:23.933Z,5.9
2022-08-22T16:19:40.168Z,8.8
2022-08-22T16:20:56.412Z,7.8
2022-08-22T16:22:12.654Z,6
2022-08-22T16:23:28.898Z,7
2022-08-22T16:24:45.129Z,7.6
2022-08-22T16:26:01.356Z,7.4
2022-08-22T16:27:17.613Z,6
2022-08-22T16:28:33.857Z,5
2022-08-22T16:29:50.101Z,5.3
2022-08-22T16:31:06.338Z,5.1
2022-08-22T16:32:22.567Z,5.7
2022-08-22T16:33:38.812Z,5.9
2022-08-22T16:34:54.059Z,5.4
2022-08-22T16:36:10.307Z,5.4
2022-08-22T16:37:26.551Z,6.7
2022-08-22T16:38:42.787Z,7.4
2022-08-22T16:39:59.017Z,4.9
2022-08-22T16:41:15.252Z,6.1
2022-08-22T16:42:31.507Z,4.9
2022-08-22T16:43:46.767Z,6.4
2022-08-22T16:45:02.028Z,6.6
2022-08-22T16:46:18.273Z,4.2
2022-08-22T16:47:34.493Z,5.3
2022-08-22T16:48:50.733Z,4.3
2022-08-22T16:50:05.999Z,4.7
2022-08-22T16:51:22.234Z,5.5
2022-08-22T16:52:38.493Z,6.3
2022-08-22T16:53:54.720Z,6.7
2022-08-22T16:55:10.955Z,4.5
2022-08-22T16:56:27.194Z,5.8
2022-08-22T16:57:43.439Z,6.7
2022-08-22T16:58:59.687Z,7.2
2022-08-22T17:00:15.921Z,7.6
2022-08-22T17:01:32.168Z,6.9
2022-08-22T17:02:48.409Z,6.3
2022-08-22T17:04:04.636Z,5.9
2022-08-22T17:05:20.880Z,6.2
2022-08-22T17:06:36.129Z,7.2
2022-08-22T17:07:52.370Z,5.2
2022-08-22T17:09:08.619Z,5.9
2022-08-22T17:10:23.877Z,6.8
2022-08-22T17:11:39.143Z,6.4
2022-08-22T17:12:54.404Z,4.6
2022-08-22T17:14:09.656Z,4.4
2022-08-22T17:15:24.921Z,4.3
2022-08-22T17:16:40.180Z,4.9
2022-08-22T17:17:55.432Z,5.9
2022-08-22T17:19:10.698Z,6.2
2022-08-22T17:20:25.960Z,4.7
2022-08-22T17:21:41.201Z,6.6
2022-08-22T17:22:57.445Z,5.7
2022-08-22T17:24:13.683Z,4.6
2022-08-22T17:25:29.935Z,6.8
2022-08-22T17:26:46.172Z,7.4
2022-08-22T17:28:02.416Z,6.7
2022-08-22T17:29:18.645Z,4.6
2022-08-22T17:30:34.890Z,7.3
2022-08-22T17:31:51.126Z,6.9
2022-08-22T17:33:07.367Z,6.7
2022-08-22T17:34:23.599Z,6.6
2022-08-22T17:35:39.837Z,6.1
2022-08-22T17:36:56.094Z,6.6
2022-08-22T17:38:11.339Z,7.7
2022-08-22T17:39:27.580Z,5.3
2022-08-22T17:40:43.818Z,5.2
2022-08-22T17:42:00.056Z,4.2
2022-08-22T17:44:32.548Z,6
2022-08-22T17:45:48.781Z,6.6